sensor_id;sensor_type;location;lat;lon;timestamp;P1;durP1;ratioP1;P2;durP2;ratioP2
17574;SDS011;8906;43.590;1.418;2023-07-02T00:01:55;11.48;;;7.53;;
17574;SDS011;8906;43.590;1.418;2023-07-02T00:04:23;8.43;;;6.80;;
17574;SDS011;8906;43.590;1.418;2023-07-02T00:06:50;9.75;;;7.30;;
17574;SDS011;8906;43.590;1.418;2023-07-02T00:09:17;10.52;;;7.25;;
17574;SDS011;8906;43.590;1.418;2023-07-02T00:11:44;12.93;;;7.45;;
17574;SDS011;8906;43.590;1.418;2023-07-02T00:14:12;10.13;;;6.88;;
17574;SDS011;8906;43.590;1.418;2023-07-02T00:16:43;10.52;;;7.32;;
17574;SDS011;8906;43.590;1.418;2023-07-02T00:19:11;10.18;;;7.45;;
17574;SDS011;8906;43.590;1.418;2023-07-02T00:21:39;9.85;;;7.35;;
17574;SDS011;8906;43.590;1.418;2023-07-02T00:24:06;9.60;;;6.53;;
17574;SDS011;8906;43.590;1.418;2023-07-02T00:26:35;13.52;;;8.57;;
17574;SDS011;8906;43.590;1.418;2023-07-02T00:29:03;9.80;;;7.65;;
17574;SDS011;8906;43.590;1.418;2023-07-02T00:31:32;12.10;;;8.18;;
17574;SDS011;8906;43.590;1.418;2023-07-02T00:34:00;8.98;;;8.00;;
17574;SDS011;8906;43.590;1.418;2023-07-02T00:36:27;12.45;;;7.90;;
17574;SDS011;8906;43.590;1.418;2023-07-02T00:38:56;10.93;;;8.25;;
17574;SDS011;8906;43.590;1.418;2023-07-02T00:41:23;10.77;;;8.20;;
17574;SDS011;8906;43.590;1.418;2023-07-02T00:43:51;9.35;;;7.90;;
17574;SDS011;8906;43.590;1.418;2023-07-02T00:46:19;11.25;;;8.10;;
17574;SDS011;8906;43.590;1.418;2023-07-02T00:48:47;13.15;;;8.52;;
17574;SDS011;8906;43.590;1.418;2023-07-02T00:51:16;12.60;;;8.00;;
17574;SDS011;8906;43.590;1.418;2023-07-02T00:53:44;13.38;;;8.00;;
17574;SDS011;8906;43.590;1.418;2023-07-02T00:56:13;10.05;;;7.70;;
17574;SDS011;8906;43.590;1.418;2023-07-02T00:58:40;15.55;;;10.43;;
17574;SDS011;8906;43.590;1.418;2023-07-02T01:01:11;11.43;;;8.63;;
17574;SDS011;8906;43.590;1.418;2023-07-02T01:03:39;13.27;;;7.70;;
17574;SDS011;8906;43.590;1.418;2023-07-02T01:06:18;12.18;;;7.90;;
17574;SDS011;8906;43.590;1.418;2023-07-02T01:08:50;13.45;;;7.65;;
17574;SDS011;8906;43.590;1.418;2023-07-02T01:11:20;9.48;;;8.52;;
17574;SDS011;8906;43.590;1.418;2023-07-02T01:13:50;11.02;;;9.07;;
17574;SDS011;8906;43.590;1.418;2023-07-02T01:16:19;11.77;;;8.18;;
17574;SDS011;8906;43.590;1.418;2023-07-02T01:18:47;13.48;;;8.88;;
17574;SDS011;8906;43.590;1.418;2023-07-02T01:21:17;11.35;;;8.30;;
17574;SDS011;8906;43.590;1.418;2023-07-02T01:23:45;9.40;;;8.23;;
17574;SDS011;8906;43.590;1.418;2023-07-02T01:26:13;11.25;;;9.10;;
17574;SDS011;8906;43.590;1.418;2023-07-02T01:28:41;10.15;;;8.15;;
17574;SDS011;8906;43.590;1.418;2023-07-02T01:31:08;10.38;;;8.23;;
17574;SDS011;8906;43.590;1.418;2023-07-02T01:33:35;8.27;;;7.35;;
17574;SDS011;8906;43.590;1.418;2023-07-02T01:36:02;9.40;;;7.53;;
17574;SDS011;8906;43.590;1.418;2023-07-02T01:38:30;14.02;;;8.95;;
17574;SDS011;8906;43.590;1.418;2023-07-02T01:40:57;17.33;;;11.93;;
17574;SDS011;8906;43.590;1.418;2023-07-02T01:43:24;11.98;;;9.02;;
17574;SDS011;8906;43.590;1.418;2023-07-02T01:45:51;9.50;;;7.07;;
17574;SDS011;8906;43.590;1.418;2023-07-02T01:48:18;9.88;;;7.45;;
17574;SDS011;8906;43.590;1.418;2023-07-02T01:50:45;9.00;;;7.22;;
17574;SDS011;8906;43.590;1.418;2023-07-02T01:53:12;13.85;;;9.70;;
17574;SDS011;8906;43.590;1.418;2023-07-02T01:55:40;11.77;;;8.00;;
17574;SDS011;8906;43.590;1.418;2023-07-02T01:58:07;10.55;;;8.05;;
17574;SDS011;8906;43.590;1.418;2023-07-02T02:00:34;10.25;;;8.60;;
17574;SDS011;8906;43.590;1.418;2023-07-02T02:03:01;11.30;;;7.72;;
17574;SDS011;8906;43.590;1.418;2023-07-02T02:05:30;11.23;;;8.40;;
17574;SDS011;8906;43.590;1.418;2023-07-02T02:07:57;7.28;;;6.57;;
17574;SDS011;8906;43.590;1.418;2023-07-02T02:10:24;12.98;;;7.47;;
17574;SDS011;8906;43.590;1.418;2023-07-02T02:12:52;10.98;;;8.90;;
17574;SDS011;8906;43.590;1.418;2023-07-02T02:15:19;8.10;;;7.25;;
17574;SDS011;8906;43.590;1.418;2023-07-02T02:17:46;10.90;;;7.18;;
17574;SDS011;8906;43.590;1.418;2023-07-02T02:20:13;8.93;;;8.05;;
17574;SDS011;8906;43.590;1.418;2023-07-02T02:22:40;8.82;;;7.22;;
17574;SDS011;8906;43.590;1.418;2023-07-02T02:25:07;14.25;;;7.47;;
17574;SDS011;8906;43.590;1.418;2023-07-02T02:27:34;11.65;;;6.95;;
17574;SDS011;8906;43.590;1.418;2023-07-02T02:30:03;10.75;;;8.43;;
17574;SDS011;8906;43.590;1.418;2023-07-02T02:32:30;9.07;;;8.13;;
17574;SDS011;8906;43.590;1.418;2023-07-02T02:34:57;9.20;;;7.10;;
17574;SDS011;8906;43.590;1.418;2023-07-02T02:37:24;11.55;;;7.88;;
17574;SDS011;8906;43.590;1.418;2023-07-02T02:39:51;10.10;;;6.85;;
17574;SDS011;8906;43.590;1.418;2023-07-02T02:42:18;8.45;;;7.10;;
17574;SDS011;8906;43.590;1.418;2023-07-02T02:44:45;10.70;;;7.85;;
17574;SDS011;8906;43.590;1.418;2023-07-02T02:47:13;11.35;;;7.22;;
17574;SDS011;8906;43.590;1.418;2023-07-02T02:49:40;9.60;;;7.22;;
17574;SDS011;8906;43.590;1.418;2023-07-02T02:52:07;11.98;;;8.90;;
17574;SDS011;8906;43.590;1.418;2023-07-02T02:54:34;9.25;;;7.38;;
17574;SDS011;8906;43.590;1.418;2023-07-02T02:57:00;10.48;;;7.88;;
17574;SDS011;8906;43.590;1.418;2023-07-02T02:59:27;12.55;;;8.43;;
17574;SDS011;8906;43.590;1.418;2023-07-02T03:01:54;12.73;;;8.48;;
17574;SDS011;8906;43.590;1.418;2023-07-02T03:04:23;10.70;;;7.88;;
17574;SDS011;8906;43.590;1.418;2023-07-02T03:06:50;12.27;;;8.30;;
17574;SDS011;8906;43.590;1.418;2023-07-02T03:09:18;17.45;;;9.25;;
17574;SDS011;8906;43.590;1.418;2023-07-02T03:11:45;13.07;;;8.55;;
17574;SDS011;8906;43.590;1.418;2023-07-02T03:14:13;11.07;;;9.35;;
17574;SDS011;8906;43.590;1.418;2023-07-02T03:16:40;9.30;;;7.85;;
17574;SDS011;8906;43.590;1.418;2023-07-02T03:19:07;12.27;;;9.00;;
17574;SDS011;8906;43.590;1.418;2023-07-02T03:21:35;14.98;;;10.48;;
17574;SDS011;8906;43.590;1.418;2023-07-02T03:24:02;13.45;;;9.70;;
17574;SDS011;8906;43.590;1.418;2023-07-02T03:26:29;14.77;;;9.60;;
17574;SDS011;8906;43.590;1.418;2023-07-02T03:28:56;12.40;;;9.23;;
17574;SDS011;8906;43.590;1.418;2023-07-02T03:31:23;13.57;;;8.65;;
17574;SDS011;8906;43.590;1.418;2023-07-02T03:33:50;12.52;;;8.93;;
17574;SDS011;8906;43.590;1.418;2023-07-02T03:36:17;13.10;;;9.60;;
17574;SDS011;8906;43.590;1.418;2023-07-02T03:38:45;14.68;;;9.32;;
17574;SDS011;8906;43.590;1.418;2023-07-02T03:41:12;14.00;;;8.32;;
17574;SDS011;8906;43.590;1.418;2023-07-02T03:43:39;16.83;;;9.80;;
17574;SDS011;8906;43.590;1.418;2023-07-02T03:46:06;14.13;;;10.35;;
17574;SDS011;8906;43.590;1.418;2023-07-02T03:48:32;15.48;;;9.93;;
17574;SDS011;8906;43.590;1.418;2023-07-02T03:51:00;10.23;;;9.20;;
17574;SDS011;8906;43.590;1.418;2023-07-02T03:53:28;10.38;;;8.45;;
17574;SDS011;8906;43.590;1.418;2023-07-02T03:55:56;12.82;;;9.88;;
17574;SDS011;8906;43.590;1.418;2023-07-02T03:58:23;10.82;;;7.93;;
17574;SDS011;8906;43.590;1.418;2023-07-02T04:00:50;12.63;;;7.90;;
17574;SDS011;8906;43.590;1.418;2023-07-02T04:03:17;11.20;;;8.57;;
17574;SDS011;8906;43.590;1.418;2023-07-02T04:05:44;12.57;;;9.40;;
17574;SDS011;8906;43.590;1.418;2023-07-02T04:08:10;10.90;;;8.45;;
17574;SDS011;8906;43.590;1.418;2023-07-02T04:10:37;10.70;;;7.93;;
17574;SDS011;8906;43.590;1.418;2023-07-02T04:13:06;13.73;;;7.63;;
17574;SDS011;8906;43.590;1.418;2023-07-02T04:15:33;9.75;;;7.80;;
17574;SDS011;8906;43.590;1.418;2023-07-02T04:18:00;8.73;;;7.22;;
17574;SDS011;8906;43.590;1.418;2023-07-02T04:20:27;9.15;;;6.50;;
17574;SDS011;8906;43.590;1.418;2023-07-02T04:22:54;12.05;;;7.72;;
17574;SDS011;8906;43.590;1.418;2023-07-02T04:25:21;9.65;;;6.80;;
17574;SDS011;8906;43.590;1.418;2023-07-02T04:27:49;9.43;;;6.47;;
17574;SDS011;8906;43.590;1.418;2023-07-02T04:30:22;10.80;;;7.57;;
17574;SDS011;8906;43.590;1.418;2023-07-02T04:32:49;8.00;;;6.88;;
17574;SDS011;8906;43.590;1.418;2023-07-02T04:35:17;7.53;;;6.13;;
17574;SDS011;8906;43.590;1.418;2023-07-02T04:37:44;11.75;;;6.88;;
17574;SDS011;8906;43.590;1.418;2023-07-02T04:40:11;7.40;;;6.22;;
17574;SDS011;8906;43.590;1.418;2023-07-02T04:42:39;9.88;;;6.28;;
17574;SDS011;8906;43.590;1.418;2023-07-02T04:45:12;9.80;;;6.32;;
17574;SDS011;8906;43.590;1.418;2023-07-02T04:47:42;10.18;;;7.10;;
17574;SDS011;8906;43.590;1.418;2023-07-02T04:50:10;10.32;;;6.57;;
17574;SDS011;8906;43.590;1.418;2023-07-02T04:52:37;7.80;;;5.30;;
17574;SDS011;8906;43.590;1.418;2023-07-02T04:55:04;7.93;;;6.72;;
17574;SDS011;8906;43.590;1.418;2023-07-02T04:57:32;9.68;;;5.38;;
17574;SDS011;8906;43.590;1.418;2023-07-02T04:59:59;7.10;;;5.78;;
17574;SDS011;8906;43.590;1.418;2023-07-02T05:02:28;8.65;;;5.85;;
17574;SDS011;8906;43.590;1.418;2023-07-02T05:04:56;7.20;;;5.28;;
17574;SDS011;8906;43.590;1.418;2023-07-02T05:07:23;7.55;;;5.88;;
17574;SDS011;8906;43.590;1.418;2023-07-02T05:09:50;6.82;;;5.57;;
17574;SDS011;8906;43.590;1.418;2023-07-02T05:12:18;7.75;;;6.57;;
17574;SDS011;8906;43.590;1.418;2023-07-02T05:14:45;9.35;;;6.38;;
17574;SDS011;8906;43.590;1.418;2023-07-02T05:17:12;5.95;;;5.13;;
17574;SDS011;8906;43.590;1.418;2023-07-02T05:19:39;8.88;;;6.38;;
17574;SDS011;8906;43.590;1.418;2023-07-02T05:22:08;10.48;;;5.85;;
17574;SDS011;8906;43.590;1.418;2023-07-02T05:24:35;11.35;;;6.25;;
17574;SDS011;8906;43.590;1.418;2023-07-02T05:27:03;8.88;;;5.28;;
17574;SDS011;8906;43.590;1.418;2023-07-02T05:29:30;7.35;;;5.00;;
17574;SDS011;8906;43.590;1.418;2023-07-02T05:31:57;6.18;;;4.63;;
17574;SDS011;8906;43.590;1.418;2023-07-02T05:34:24;5.45;;;4.78;;
17574;SDS011;8906;43.590;1.418;2023-07-02T05:36:51;5.55;;;4.80;;
17574;SDS011;8906;43.590;1.418;2023-07-02T05:39:20;9.00;;;4.70;;
17574;SDS011;8906;43.590;1.418;2023-07-02T05:41:47;6.10;;;4.07;;
17574;SDS011;8906;43.590;1.418;2023-07-02T05:44:14;5.35;;;4.50;;
17574;SDS011;8906;43.590;1.418;2023-07-02T05:46:41;7.57;;;5.10;;
17574;SDS011;8906;43.590;1.418;2023-07-02T05:49:08;8.15;;;4.38;;
17574;SDS011;8906;43.590;1.418;2023-07-02T05:51:35;4.82;;;4.40;;
17574;SDS011;8906;43.590;1.418;2023-07-02T05:54:02;5.65;;;4.55;;
17574;SDS011;8906;43.590;1.418;2023-07-02T05:56:31;5.45;;;3.78;;
17574;SDS011;8906;43.590;1.418;2023-07-02T05:58:58;5.20;;;4.10;;
17574;SDS011;8906;43.590;1.418;2023-07-02T06:01:25;6.05;;;4.22;;
17574;SDS011;8906;43.590;1.418;2023-07-02T06:03:51;7.93;;;4.22;;
17574;SDS011;8906;43.590;1.418;2023-07-02T06:06:19;5.82;;;4.45;;
17574;SDS011;8906;43.590;1.418;2023-07-02T06:08:47;6.25;;;4.75;;
17574;SDS011;8906;43.590;1.418;2023-07-02T06:11:14;4.22;;;3.83;;
17574;SDS011;8906;43.590;1.418;2023-07-02T06:13:42;4.47;;;3.90;;
17574;SDS011;8906;43.590;1.418;2023-07-02T06:16:09;4.55;;;4.03;;
17574;SDS011;8906;43.590;1.418;2023-07-02T06:18:36;9.77;;;4.47;;
17574;SDS011;8906;43.590;1.418;2023-07-02T06:21:03;5.05;;;4.15;;
17574;SDS011;8906;43.590;1.418;2023-07-02T06:23:38;5.40;;;4.30;;
17574;SDS011;8906;43.590;1.418;2023-07-02T06:26:06;5.50;;;4.43;;
17574;SDS011;8906;43.590;1.418;2023-07-02T06:28:33;5.80;;;4.93;;
17574;SDS011;8906;43.590;1.418;2023-07-02T06:31:01;4.05;;;3.75;;
17574;SDS011;8906;43.590;1.418;2023-07-02T06:33:28;4.93;;;4.30;;
17574;SDS011;8906;43.590;1.418;2023-07-02T06:35:55;5.53;;;3.83;;
17574;SDS011;8906;43.590;1.418;2023-07-02T06:38:23;4.53;;;3.85;;
17574;SDS011;8906;43.590;1.418;2023-07-02T06:40:50;7.53;;;4.70;;
17574;SDS011;8906;43.590;1.418;2023-07-02T06:43:17;4.93;;;4.03;;
17574;SDS011;8906;43.590;1.418;2023-07-02T06:45:44;4.72;;;4.32;;
17574;SDS011;8906;43.590;1.418;2023-07-02T06:48:12;5.10;;;3.90;;
17574;SDS011;8906;43.590;1.418;2023-07-02T06:50:43;5.60;;;4.55;;
17574;SDS011;8906;43.590;1.418;2023-07-02T06:53:11;6.18;;;3.92;;
17574;SDS011;8906;43.590;1.418;2023-07-02T06:55:38;3.67;;;3.20;;
17574;SDS011;8906;43.590;1.418;2023-07-02T06:58:05;5.43;;;3.88;;
17574;SDS011;8906;43.590;1.418;2023-07-02T07:00:32;5.65;;;3.38;;
17574;SDS011;8906;43.590;1.418;2023-07-02T07:03:00;6.47;;;4.07;;
17574;SDS011;8906;43.590;1.418;2023-07-02T07:05:29;6.68;;;3.70;;
17574;SDS011;8906;43.590;1.418;2023-07-02T07:07:56;3.55;;;3.22;;
17574;SDS011;8906;43.590;1.418;2023-07-02T07:10:23;5.68;;;3.97;;
17574;SDS011;8906;43.590;1.418;2023-07-02T07:12:50;11.45;;;4.22;;
17574;SDS011;8906;43.590;1.418;2023-07-02T07:15:17;3.90;;;3.47;;
17574;SDS011;8906;43.590;1.418;2023-07-02T07:17:44;5.32;;;3.53;;
17574;SDS011;8906;43.590;1.418;2023-07-02T07:20:11;4.60;;;3.15;;
17574;SDS011;8906;43.590;1.418;2023-07-02T07:22:40;3.05;;;2.75;;
17574;SDS011;8906;43.590;1.418;2023-07-02T07:25:07;4.03;;;3.47;;
17574;SDS011;8906;43.590;1.418;2023-07-02T07:27:34;5.68;;;3.17;;
17574;SDS011;8906;43.590;1.418;2023-07-02T07:30:02;4.32;;;3.03;;
17574;SDS011;8906;43.590;1.418;2023-07-02T07:32:29;4.55;;;3.08;;
17574;SDS011;8906;43.590;1.418;2023-07-02T07:34:56;6.75;;;4.20;;
17574;SDS011;8906;43.590;1.418;2023-07-02T07:37:23;3.50;;;3.13;;
17574;SDS011;8906;43.590;1.418;2023-07-02T07:39:52;4.78;;;3.47;;
17574;SDS011;8906;43.590;1.418;2023-07-02T07:42:19;4.55;;;3.08;;
17574;SDS011;8906;43.590;1.418;2023-07-02T07:44:46;6.22;;;3.30;;
17574;SDS011;8906;43.590;1.418;2023-07-02T07:47:13;3.47;;;2.20;;
17574;SDS011;8906;43.590;1.418;2023-07-02T07:49:40;4.05;;;3.35;;
17574;SDS011;8906;43.590;1.418;2023-07-02T07:52:07;4.90;;;3.00;;
17574;SDS011;8906;43.590;1.418;2023-07-02T07:54:34;3.13;;;2.80;;
17574;SDS011;8906;43.590;1.418;2023-07-02T07:57:03;3.70;;;2.72;;
17574;SDS011;8906;43.590;1.418;2023-07-02T07:59:30;3.20;;;2.75;;
17574;SDS011;8906;43.590;1.418;2023-07-02T08:01:57;4.10;;;2.80;;
17574;SDS011;8906;43.590;1.418;2023-07-02T08:04:24;3.05;;;2.45;;
17574;SDS011;8906;43.590;1.418;2023-07-02T08:06:51;2.38;;;2.17;;
17574;SDS011;8906;43.590;1.418;2023-07-02T08:09:19;2.33;;;2.13;;
17574;SDS011;8906;43.590;1.418;2023-07-02T08:11:46;5.32;;;3.20;;
17574;SDS011;8906;43.590;1.418;2023-07-02T08:14:15;3.05;;;2.80;;
17574;SDS011;8906;43.590;1.418;2023-07-02T08:16:43;4.22;;;2.60;;
17574;SDS011;8906;43.590;1.418;2023-07-02T08:19:10;2.50;;;2.30;;
17574;SDS011;8906;43.590;1.418;2023-07-02T08:21:37;2.83;;;2.55;;
17574;SDS011;8906;43.590;1.418;2023-07-02T08:24:04;3.53;;;2.95;;
17574;SDS011;8906;43.590;1.418;2023-07-02T08:26:32;3.13;;;2.60;;
17574;SDS011;8906;43.590;1.418;2023-07-02T08:28:59;3.88;;;3.03;;
17574;SDS011;8906;43.590;1.418;2023-07-02T08:31:27;3.00;;;2.75;;
17574;SDS011;8906;43.590;1.418;2023-07-02T08:33:54;2.63;;;2.33;;
17574;SDS011;8906;43.590;1.418;2023-07-02T08:36:21;3.05;;;2.42;;
17574;SDS011;8906;43.590;1.418;2023-07-02T08:38:48;3.58;;;2.33;;
17574;SDS011;8906;43.590;1.418;2023-07-02T08:41:15;2.00;;;1.73;;
17574;SDS011;8906;43.590;1.418;2023-07-02T08:43:42;2.38;;;2.10;;
17574;SDS011;8906;43.590;1.418;2023-07-02T08:46:09;3.17;;;2.13;;
17574;SDS011;8906;43.590;1.418;2023-07-02T08:48:38;2.10;;;1.60;;
17574;SDS011;8906;43.590;1.418;2023-07-02T08:51:05;1.85;;;1.75;;
17574;SDS011;8906;43.590;1.418;2023-07-02T08:53:32;3.05;;;2.05;;
17574;SDS011;8906;43.590;1.418;2023-07-02T08:55:59;2.85;;;1.55;;
17574;SDS011;8906;43.590;1.418;2023-07-02T08:58:26;1.70;;;1.60;;
17574;SDS011;8906;43.590;1.418;2023-07-02T09:01:09;2.10;;;1.52;;
17574;SDS011;8906;43.590;1.418;2023-07-02T09:03:38;1.50;;;1.40;;
17574;SDS011;8906;43.590;1.418;2023-07-02T09:06:06;3.20;;;1.60;;
17574;SDS011;8906;43.590;1.418;2023-07-02T09:08:34;1.30;;;1.20;;
17574;SDS011;8906;43.590;1.418;2023-07-02T09:11:08;1.83;;;1.30;;
17574;SDS011;8906;43.590;1.418;2023-07-02T09:13:42;1.52;;;1.42;;
17574;SDS011;8906;43.590;1.418;2023-07-02T09:16:20;1.25;;;1.15;;
17574;SDS011;8906;43.590;1.418;2023-07-02T09:19:02;0.70;;;0.70;;
17574;SDS011;8906;43.590;1.418;2023-07-02T09:21:41;0.70;;;0.63;;
17574;SDS011;8906;43.590;1.418;2023-07-02T09:24:15;1.35;;;1.25;;
17574;SDS011;8906;43.590;1.418;2023-07-02T09:26:44;0.70;;;0.60;;
17574;SDS011;8906;43.590;1.418;2023-07-02T09:29:11;1.05;;;0.80;;
17574;SDS011;8906;43.590;1.418;2023-07-02T09:31:45;0.80;;;0.80;;
17574;SDS011;8906;43.590;1.418;2023-07-02T09:34:14;2.25;;;1.25;;
17574;SDS011;8906;43.590;1.418;2023-07-02T09:36:41;2.22;;;0.60;;
17574;SDS011;8906;43.590;1.418;2023-07-02T09:39:11;0.70;;;0.68;;
17574;SDS011;8906;43.590;1.418;2023-07-02T09:41:39;2.58;;;1.90;;
17574;SDS011;8906;43.590;1.418;2023-07-02T09:44:07;1.13;;;0.60;;
17574;SDS011;8906;43.590;1.418;2023-07-02T09:46:35;0.88;;;0.70;;
17574;SDS011;8906;43.590;1.418;2023-07-02T09:49:08;0.35;;;0.28;;
17574;SDS011;8906;43.590;1.418;2023-07-02T09:51:41;4.47;;;0.80;;
17574;SDS011;8906;43.590;1.418;2023-07-02T09:54:10;0.70;;;0.70;;
17574;SDS011;8906;43.590;1.418;2023-07-02T09:56:37;0.70;;;0.60;;
17574;SDS011;8906;43.590;1.418;2023-07-02T09:59:05;0.65;;;0.60;;
17574;SDS011;8906;43.590;1.418;2023-07-02T10:01:32;2.03;;;0.70;;
17574;SDS011;8906;43.590;1.418;2023-07-02T10:04:09;1.77;;;1.20;;
17574;SDS011;8906;43.590;1.418;2023-07-02T10:06:45;0.82;;;0.68;;
17574;SDS011;8906;43.590;1.418;2023-07-02T10:09:13;0.50;;;0.50;;
17574;SDS011;8906;43.590;1.418;2023-07-02T10:11:40;2.42;;;0.60;;
17574;SDS011;8906;43.590;1.418;2023-07-02T10:14:07;2.15;;;0.70;;
17574;SDS011;8906;43.590;1.418;2023-07-02T10:16:34;0.65;;;0.52;;
17574;SDS011;8906;43.590;1.418;2023-07-02T10:19:10;1.33;;;0.45;;
17574;SDS011;8906;43.590;1.418;2023-07-02T10:21:37;1.95;;;1.02;;
17574;SDS011;8906;43.590;1.418;2023-07-02T10:24:12;1.20;;;0.50;;
17574;SDS011;8906;43.590;1.418;2023-07-02T10:26:51;0.90;;;0.90;;
17574;SDS011;8906;43.590;1.418;2023-07-02T10:29:18;0.90;;;0.60;;
17574;SDS011;8906;43.590;1.418;2023-07-02T10:31:49;1.27;;;0.60;;
17574;SDS011;8906;43.590;1.418;2023-07-02T10:34:27;1.40;;;0.70;;
17574;SDS011;8906;43.590;1.418;2023-07-02T10:36:55;1.05;;;0.63;;
17574;SDS011;8906;43.590;1.418;2023-07-02T10:39:24;0.70;;;0.70;;
17574;SDS011;8906;43.590;1.418;2023-07-02T10:41:51;0.60;;;0.60;;
17574;SDS011;8906;43.590;1.418;2023-07-02T10:44:18;0.88;;;0.75;;
17574;SDS011;8906;43.590;1.418;2023-07-02T10:46:45;1.00;;;0.85;;
17574;SDS011;8906;43.590;1.418;2023-07-02T10:49:13;0.90;;;0.90;;
17574;SDS011;8906;43.590;1.418;2023-07-02T10:51:41;0.60;;;0.60;;
17574;SDS011;8906;43.590;1.418;2023-07-02T10:54:07;0.70;;;0.70;;
17574;SDS011;8906;43.590;1.418;2023-07-02T10:56:36;0.60;;;0.60;;
17574;SDS011;8906;43.590;1.418;2023-07-02T10:59:03;1.70;;;0.82;;
17574;SDS011;8906;43.590;1.418;2023-07-02T11:01:30;1.65;;;0.88;;
17574;SDS011;8906;43.590;1.418;2023-07-02T11:03:58;0.93;;;0.82;;
17574;SDS011;8906;43.590;1.418;2023-07-02T11:06:26;0.45;;;0.40;;
17574;SDS011;8906;43.590;1.418;2023-07-02T11:08:54;1.58;;;0.63;;
17574;SDS011;8906;43.590;1.418;2023-07-02T11:11:21;0.88;;;0.80;;
17574;SDS011;8906;43.590;1.418;2023-07-02T11:13:50;0.70;;;0.60;;
17574;SDS011;8906;43.590;1.418;2023-07-02T11:16:19;3.30;;;1.75;;
17574;SDS011;8906;43.590;1.418;2023-07-02T11:18:47;3.35;;;1.25;;
17574;SDS011;8906;43.590;1.418;2023-07-02T11:21:14;1.52;;;0.60;;
17574;SDS011;8906;43.590;1.418;2023-07-02T11:23:41;0.90;;;0.57;;
17574;SDS011;8906;43.590;1.418;2023-07-02T11:26:08;1.40;;;0.70;;
17574;SDS011;8906;43.590;1.418;2023-07-02T11:28:35;1.63;;;1.13;;
17574;SDS011;8906;43.590;1.418;2023-07-02T11:31:04;1.48;;;0.90;;
17574;SDS011;8906;43.590;1.418;2023-07-02T11:33:33;1.48;;;1.38;;
17574;SDS011;8906;43.590;1.418;2023-07-02T11:36:03;1.42;;;0.80;;
17574;SDS011;8906;43.590;1.418;2023-07-02T11:38:30;0.85;;;0.52;;
17574;SDS011;8906;43.590;1.418;2023-07-02T11:40:59;2.45;;;0.93;;
17574;SDS011;8906;43.590;1.418;2023-07-02T11:43:26;0.98;;;0.98;;
17574;SDS011;8906;43.590;1.418;2023-07-02T11:45:53;2.05;;;1.17;;
17574;SDS011;8906;43.590;1.418;2023-07-02T11:48:21;1.38;;;1.27;;
17574;SDS011;8906;43.590;1.418;2023-07-02T11:50:48;1.25;;;1.10;;
17574;SDS011;8906;43.590;1.418;2023-07-02T11:53:15;1.77;;;1.30;;
17574;SDS011;8906;43.590;1.418;2023-07-02T11:55:41;1.83;;;1.70;;
17574;SDS011;8906;43.590;1.418;2023-07-02T11:58:08;3.13;;;1.45;;
17574;SDS011;8906;43.590;1.418;2023-07-02T12:00:35;1.42;;;1.05;;
17574;SDS011;8906;43.590;1.418;2023-07-02T12:03:02;1.60;;;1.05;;
17574;SDS011;8906;43.590;1.418;2023-07-02T12:05:30;1.63;;;1.50;;
17574;SDS011;8906;43.590;1.418;2023-07-02T12:07:57;1.00;;;1.00;;
17574;SDS011;8906;43.590;1.418;2023-07-02T12:10:24;0.88;;;0.88;;
17574;SDS011;8906;43.590;1.418;2023-07-02T12:12:51;0.88;;;0.88;;
17574;SDS011;8906;43.590;1.418;2023-07-02T12:15:18;1.13;;;1.00;;
17574;SDS011;8906;43.590;1.418;2023-07-02T12:17:45;1.00;;;1.00;;
17574;SDS011;8906;43.590;1.418;2023-07-02T12:20:12;0.80;;;0.80;;
17574;SDS011;8906;43.590;1.418;2023-07-02T12:22:40;0.80;;;0.80;;
17574;SDS011;8906;43.590;1.418;2023-07-02T12:25:09;0.77;;;0.77;;
17574;SDS011;8906;43.590;1.418;2023-07-02T12:27:36;0.82;;;0.82;;
17574;SDS011;8906;43.590;1.418;2023-07-02T12:30:03;1.77;;;0.85;;
17574;SDS011;8906;43.590;1.418;2023-07-02T12:32:31;0.75;;;0.75;;
17574;SDS011;8906;43.590;1.418;2023-07-02T12:34:59;1.75;;;0.70;;
17574;SDS011;8906;43.590;1.418;2023-07-02T12:37:26;1.58;;;1.48;;
17574;SDS011;8906;43.590;1.418;2023-07-02T12:39:54;1.17;;;1.08;;
17574;SDS011;8906;43.590;1.418;2023-07-02T12:42:21;1.70;;;1.02;;
17574;SDS011;8906;43.590;1.418;2023-07-02T12:44:48;0.63;;;0.63;;
17574;SDS011;8906;43.590;1.418;2023-07-02T12:47:15;1.30;;;0.95;;
17574;SDS011;8906;43.590;1.418;2023-07-02T12:49:43;1.30;;;1.20;;
17574;SDS011;8906;43.590;1.418;2023-07-02T12:52:09;1.95;;;1.15;;
17574;SDS011;8906;43.590;1.418;2023-07-02T12:54:36;2.15;;;1.73;;
17574;SDS011;8906;43.590;1.418;2023-07-02T12:57:05;1.35;;;1.25;;
17574;SDS011;8906;43.590;1.418;2023-07-02T12:59:32;1.23;;;1.13;;
17574;SDS011;8906;43.590;1.418;2023-07-02T13:01:59;2.00;;;1.10;;
17574;SDS011;8906;43.590;1.418;2023-07-02T13:04:26;0.90;;;0.90;;
17574;SDS011;8906;43.590;1.418;2023-07-02T13:06:53;3.50;;;2.05;;
17574;SDS011;8906;43.590;1.418;2023-07-02T13:09:20;2.30;;;2.10;;
17574;SDS011;8906;43.590;1.418;2023-07-02T13:11:47;2.28;;;1.52;;
17574;SDS011;8906;43.590;1.418;2023-07-02T13:14:15;1.38;;;1.08;;
17574;SDS011;8906;43.590;1.418;2023-07-02T13:16:42;1.40;;;1.27;;
17574;SDS011;8906;43.590;1.418;2023-07-02T13:19:09;1.17;;;1.08;;
17574;SDS011;8906;43.590;1.418;2023-07-02T13:21:36;2.58;;;2.00;;
17574;SDS011;8906;43.590;1.418;2023-07-02T13:24:03;2.38;;;1.80;;
17574;SDS011;8906;43.590;1.418;2023-07-02T13:26:30;1.65;;;1.55;;
17574;SDS011;8906;43.590;1.418;2023-07-02T13:28:57;1.40;;;1.30;;
17574;SDS011;8906;43.590;1.418;2023-07-02T13:31:25;2.67;;;1.30;;
17574;SDS011;8906;43.590;1.418;2023-07-02T13:33:52;1.33;;;1.23;;
17574;SDS011;8906;43.590;1.418;2023-07-02T13:36:19;2.72;;;1.98;;
17574;SDS011;8906;43.590;1.418;2023-07-02T13:38:46;1.45;;;1.35;;
17574;SDS011;8906;43.590;1.418;2023-07-02T13:41:13;1.60;;;1.50;;
17574;SDS011;8906;43.590;1.418;2023-07-02T13:43:40;1.48;;;1.33;;
17574;SDS011;8906;43.590;1.418;2023-07-02T13:46:07;1.63;;;1.33;;
17574;SDS011;8906;43.590;1.418;2023-07-02T13:48:35;3.42;;;1.15;;
17574;SDS011;8906;43.590;1.418;2023-07-02T13:51:02;1.40;;;1.15;;
17574;SDS011;8906;43.590;1.418;2023-07-02T13:53:29;2.13;;;1.67;;
17574;SDS011;8906;43.590;1.418;2023-07-02T13:55:56;1.95;;;1.23;;
17574;SDS011;8906;43.590;1.418;2023-07-02T13:58:23;1.77;;;1.33;;
17574;SDS011;8906;43.590;1.418;2023-07-02T14:00:51;1.40;;;1.30;;
17574;SDS011;8906;43.590;1.418;2023-07-02T14:03:18;1.52;;;1.40;;
17574;SDS011;8906;43.590;1.418;2023-07-02T14:05:45;1.33;;;1.23;;
17574;SDS011;8906;43.590;1.418;2023-07-02T14:08:11;1.42;;;1.30;;
17574;SDS011;8906;43.590;1.418;2023-07-02T14:10:38;1.27;;;1.13;;
17574;SDS011;8906;43.590;1.418;2023-07-02T14:13:05;1.23;;;1.13;;
17574;SDS011;8906;43.590;1.418;2023-07-02T14:15:32;2.03;;;1.40;;
17574;SDS011;8906;43.590;1.418;2023-07-02T14:18:00;1.45;;;1.35;;
17574;SDS011;8906;43.590;1.418;2023-07-02T14:20:27;1.45;;;1.35;;
17574;SDS011;8906;43.590;1.418;2023-07-02T14:22:54;1.08;;;1.08;;
17574;SDS011;8906;43.590;1.418;2023-07-02T14:25:21;1.20;;;1.10;;
17574;SDS011;8906;43.590;1.418;2023-07-02T14:27:48;1.55;;;1.10;;
17574;SDS011;8906;43.590;1.418;2023-07-02T14:30:15;1.10;;;0.95;;
17574;SDS011;8906;43.590;1.418;2023-07-02T14:32:42;1.20;;;1.13;;
17574;SDS011;8906;43.590;1.418;2023-07-02T14:35:10;1.40;;;1.30;;
17574;SDS011;8906;43.590;1.418;2023-07-02T14:37:37;1.58;;;1.48;;
17574;SDS011;8906;43.590;1.418;2023-07-02T14:40:04;1.00;;;1.00;;
17574;SDS011;8906;43.590;1.418;2023-07-02T14:42:32;0.90;;;0.90;;
17574;SDS011;8906;43.590;1.418;2023-07-02T14:44:59;1.30;;;0.93;;
17574;SDS011;8906;43.590;1.418;2023-07-02T14:47:26;1.17;;;1.00;;
17574;SDS011;8906;43.590;1.418;2023-07-02T14:49:53;0.77;;;0.70;;
17574;SDS011;8906;43.590;1.418;2023-07-02T14:52:21;0.98;;;0.98;;
17574;SDS011;8906;43.590;1.418;2023-07-02T14:54:48;1.45;;;1.25;;
17574;SDS011;8906;43.590;1.418;2023-07-02T14:57:15;1.20;;;0.90;;
17574;SDS011;8906;43.590;1.418;2023-07-02T14:59:44;6.28;;;1.95;;
17574;SDS011;8906;43.590;1.418;2023-07-02T15:02:12;0.90;;;0.90;;